EBAW METAR and TAF | Updated Today

EBAW METAR

Antwerp International Airport (Deurne)

Observation time: 7 min. ago

EBAW 061920Z AUTO 18003KT 9999 // VV/// 13/07 Q1029

Need help? Read our tutorial on how to read METARs or read the parsed version below.

Antwerp International Airport (Deurne) (EBAW) METAR

  • Weather conditions on Thu, 06 Oct 2022 19:20:00 +0000 (7 min. ago):
  • Present conditions: Dry
  • Clouds: Vertical visibility
  • Visibility: Greater than 10 km
  • Wind: 180 degrees at 3 knots
  • Temperature: 13 celsius
  • Dew point: 7 celsius
  • Pressure: 1029 millibars
  • Remarks: None


Useful to know...

EBAW TAF

Antwerp International Airport (Deurne)

TAF EBAW 061702Z 0618/0703 20005KT CAVOK
Observation time: 2:25 hr. ago
Need help? Read our tutorial on how to read TAFs or read the parsed version below.

Parsed version of TAF for Antwerp International Airport (Deurne) (EBAW)

  • From 06 October at 18:00 UTC, to day 07 of the month at 03:00 UTC
  • Visibility: Greater than 10 km
  • Wind: 200 degrees at 5